sensor_id;sensor_type;location;lat;lon;timestamp;P1;durP1;ratioP1;P2;durP2;ratioP2
22646;SDS011;11490;42.726;23.268;2023-08-17T00:01:42;7.18;;;4.97;;
22646;SDS011;11490;42.726;23.268;2023-08-17T00:04:08;5.60;;;4.00;;
22646;SDS011;11490;42.726;23.268;2023-08-17T00:06:33;5.45;;;4.78;;
22646;SDS011;11490;42.726;23.268;2023-08-17T00:08:59;5.70;;;4.25;;
22646;SDS011;11490;42.726;23.268;2023-08-17T00:11:24;5.97;;;4.18;;
22646;SDS011;11490;42.726;23.268;2023-08-17T00:13:50;7.05;;;4.10;;
22646;SDS011;11490;42.726;23.268;2023-08-17T00:16:15;6.30;;;4.75;;
22646;SDS011;11490;42.726;23.268;2023-08-17T00:18:41;4.80;;;3.63;;
22646;SDS011;11490;42.726;23.268;2023-08-17T00:21:07;6.55;;;4.90;;
22646;SDS011;11490;42.726;23.268;2023-08-17T00:23:32;5.95;;;4.47;;
22646;SDS011;11490;42.726;23.268;2023-08-17T00:25:58;5.10;;;3.92;;
22646;SDS011;11490;42.726;23.268;2023-08-17T00:28:24;6.47;;;4.45;;
22646;SDS011;11490;42.726;23.268;2023-08-17T00:30:50;6.68;;;4.18;;
22646;SDS011;11490;42.726;23.268;2023-08-17T00:33:15;7.90;;;4.50;;
22646;SDS011;11490;42.726;23.268;2023-08-17T00:35:41;5.82;;;4.10;;
22646;SDS011;11490;42.726;23.268;2023-08-17T00:38:07;5.40;;;4.25;;
22646;SDS011;11490;42.726;23.268;2023-08-17T00:40:33;10.32;;;4.00;;
22646;SDS011;11490;42.726;23.268;2023-08-17T00:42:59;7.50;;;4.15;;
22646;SDS011;11490;42.726;23.268;2023-08-17T00:45:24;8.55;;;4.07;;
22646;SDS011;11490;42.726;23.268;2023-08-17T00:47:49;10.70;;;4.43;;
22646;SDS011;11490;42.726;23.268;2023-08-17T00:50:15;9.07;;;4.68;;
22646;SDS011;11490;42.726;23.268;2023-08-17T00:52:41;8.70;;;3.80;;
22646;SDS011;11490;42.726;23.268;2023-08-17T00:55:07;5.53;;;3.88;;
22646;SDS011;11490;42.726;23.268;2023-08-17T00:57:34;6.00;;;3.95;;
22646;SDS011;11490;42.726;23.268;2023-08-17T01:00:01;8.43;;;4.35;;
22646;SDS011;11490;42.726;23.268;2023-08-17T01:02:27;5.88;;;4.32;;
22646;SDS011;11490;42.726;23.268;2023-08-17T01:04:53;7.55;;;4.88;;
22646;SDS011;11490;42.726;23.268;2023-08-17T01:07:18;7.03;;;4.18;;
22646;SDS011;11490;42.726;23.268;2023-08-17T01:09:44;8.02;;;3.95;;
22646;SDS011;11490;42.726;23.268;2023-08-17T01:12:21;6.20;;;3.97;;
22646;SDS011;11490;42.726;23.268;2023-08-17T01:17:27;6.78;;;4.53;;
22646;SDS011;11490;42.726;23.268;2023-08-17T01:19:57;5.93;;;3.97;;
22646;SDS011;11490;42.726;23.268;2023-08-17T01:22:23;7.25;;;4.07;;
22646;SDS011;11490;42.726;23.268;2023-08-17T01:24:54;8.27;;;4.40;;
22646;SDS011;11490;42.726;23.268;2023-08-17T01:27:22;10.05;;;4.13;;
22646;SDS011;11490;42.726;23.268;2023-08-17T01:29:49;6.32;;;4.60;;
22646;SDS011;11490;42.726;23.268;2023-08-17T01:32:24;7.75;;;4.07;;
22646;SDS011;11490;42.726;23.268;2023-08-17T01:34:58;8.85;;;4.45;;
22646;SDS011;11490;42.726;23.268;2023-08-17T01:37:29;5.22;;;3.75;;
22646;SDS011;11490;42.726;23.268;2023-08-17T01:39:57;7.45;;;3.80;;
22646;SDS011;11490;42.726;23.268;2023-08-17T01:42:25;7.10;;;3.60;;
22646;SDS011;11490;42.726;23.268;2023-08-17T01:44:50;5.15;;;3.67;;
22646;SDS011;11490;42.726;23.268;2023-08-17T01:47:20;4.53;;;3.38;;
22646;SDS011;11490;42.726;23.268;2023-08-17T01:49:46;10.38;;;4.13;;
22646;SDS011;11490;42.726;23.268;2023-08-17T01:52:12;6.97;;;4.28;;
22646;SDS011;11490;42.726;23.268;2023-08-17T01:54:37;6.63;;;3.50;;
22646;SDS011;11490;42.726;23.268;2023-08-17T01:57:03;12.38;;;4.10;;
22646;SDS011;11490;42.726;23.268;2023-08-17T01:59:28;6.75;;;4.00;;
22646;SDS011;11490;42.726;23.268;2023-08-17T02:01:53;5.05;;;3.40;;
22646;SDS011;11490;42.726;23.268;2023-08-17T02:04:19;5.40;;;3.47;;
22646;SDS011;11490;42.726;23.268;2023-08-17T02:06:44;6.05;;;4.10;;
22646;SDS011;11490;42.726;23.268;2023-08-17T02:09:11;6.60;;;3.83;;
22646;SDS011;11490;42.726;23.268;2023-08-17T02:11:37;5.18;;;3.60;;
22646;SDS011;11490;42.726;23.268;2023-08-17T02:14:02;6.47;;;4.03;;
22646;SDS011;11490;42.726;23.268;2023-08-17T02:16:27;4.63;;;3.38;;
22646;SDS011;11490;42.726;23.268;2023-08-17T02:18:53;5.07;;;3.75;;
22646;SDS011;11490;42.726;23.268;2023-08-17T02:21:18;12.40;;;3.95;;
22646;SDS011;11490;42.726;23.268;2023-08-17T02:23:44;5.57;;;3.75;;
22646;SDS011;11490;42.726;23.268;2023-08-17T02:26:09;6.40;;;3.88;;
22646;SDS011;11490;42.726;23.268;2023-08-17T02:28:34;6.40;;;3.45;;
22646;SDS011;11490;42.726;23.268;2023-08-17T02:31:00;5.68;;;3.47;;
22646;SDS011;11490;42.726;23.268;2023-08-17T02:33:25;5.25;;;3.40;;
22646;SDS011;11490;42.726;23.268;2023-08-17T02:35:51;7.07;;;3.72;;
22646;SDS011;11490;42.726;23.268;2023-08-17T02:38:17;5.85;;;4.10;;
22646;SDS011;11490;42.726;23.268;2023-08-17T02:40:43;6.72;;;3.97;;
22646;SDS011;11490;42.726;23.268;2023-08-17T02:43:08;6.40;;;3.67;;
22646;SDS011;11490;42.726;23.268;2023-08-17T02:45:34;5.47;;;3.70;;
22646;SDS011;11490;42.726;23.268;2023-08-17T02:47:59;5.45;;;3.55;;
22646;SDS011;11490;42.726;23.268;2023-08-17T02:50:25;6.82;;;3.40;;
22646;SDS011;11490;42.726;23.268;2023-08-17T02:52:50;5.28;;;4.07;;
22646;SDS011;11490;42.726;23.268;2023-08-17T02:55:16;6.95;;;4.20;;
22646;SDS011;11490;42.726;23.268;2023-08-17T02:57:41;8.57;;;3.90;;
22646;SDS011;11490;42.726;23.268;2023-08-17T03:00:07;7.93;;;4.00;;
22646;SDS011;11490;42.726;23.268;2023-08-17T03:02:32;6.05;;;3.70;;
22646;SDS011;11490;42.726;23.268;2023-08-17T03:04:58;5.22;;;3.38;;
22646;SDS011;11490;42.726;23.268;2023-08-17T03:07:23;6.75;;;3.67;;
22646;SDS011;11490;42.726;23.268;2023-08-17T03:09:49;6.90;;;3.38;;
22646;SDS011;11490;42.726;23.268;2023-08-17T03:12:14;7.57;;;4.30;;
22646;SDS011;11490;42.726;23.268;2023-08-17T03:14:42;5.82;;;3.67;;
22646;SDS011;11490;42.726;23.268;2023-08-17T03:17:07;4.05;;;3.47;;
22646;SDS011;11490;42.726;23.268;2023-08-17T03:19:32;4.53;;;3.78;;
22646;SDS011;11490;42.726;23.268;2023-08-17T03:21:58;6.65;;;3.90;;
22646;SDS011;11490;42.726;23.268;2023-08-17T03:24:23;5.75;;;3.63;;
22646;SDS011;11490;42.726;23.268;2023-08-17T03:26:49;7.68;;;3.33;;
22646;SDS011;11490;42.726;23.268;2023-08-17T03:29:14;5.65;;;3.47;;
22646;SDS011;11490;42.726;23.268;2023-08-17T03:31:40;11.32;;;3.47;;
22646;SDS011;11490;42.726;23.268;2023-08-17T03:34:05;5.72;;;3.42;;
22646;SDS011;11490;42.726;23.268;2023-08-17T03:36:34;5.10;;;3.70;;
22646;SDS011;11490;42.726;23.268;2023-08-17T03:38:59;12.38;;;3.72;;
22646;SDS011;11490;42.726;23.268;2023-08-17T03:41:24;5.93;;;3.25;;
22646;SDS011;11490;42.726;23.268;2023-08-17T03:43:50;8.88;;;3.70;;
22646;SDS011;11490;42.726;23.268;2023-08-17T03:46:15;6.50;;;3.63;;
22646;SDS011;11490;42.726;23.268;2023-08-17T03:48:41;5.85;;;3.78;;
22646;SDS011;11490;42.726;23.268;2023-08-17T03:51:06;7.95;;;4.03;;
22646;SDS011;11490;42.726;23.268;2023-08-17T03:53:32;6.25;;;3.88;;
22646;SDS011;11490;42.726;23.268;2023-08-17T03:55:57;12.57;;;4.20;;
22646;SDS011;11490;42.726;23.268;2023-08-17T03:58:22;7.15;;;3.88;;
22646;SDS011;11490;42.726;23.268;2023-08-17T04:00:52;7.55;;;3.90;;
22646;SDS011;11490;42.726;23.268;2023-08-17T04:03:18;17.20;;;8.90;;
22646;SDS011;11490;42.726;23.268;2023-08-17T04:05:44;8.05;;;4.68;;
22646;SDS011;11490;42.726;23.268;2023-08-17T04:08:09;9.27;;;5.53;;
22646;SDS011;11490;42.726;23.268;2023-08-17T04:10:35;7.55;;;5.60;;
22646;SDS011;11490;42.726;23.268;2023-08-17T04:13:00;13.45;;;5.68;;
22646;SDS011;11490;42.726;23.268;2023-08-17T04:15:26;6.43;;;4.18;;
22646;SDS011;11490;42.726;23.268;2023-08-17T04:17:51;6.00;;;4.38;;
22646;SDS011;11490;42.726;23.268;2023-08-17T04:20:16;8.38;;;4.65;;
22646;SDS011;11490;42.726;23.268;2023-08-17T04:22:43;8.82;;;4.28;;
22646;SDS011;11490;42.726;23.268;2023-08-17T04:25:08;7.65;;;4.30;;
22646;SDS011;11490;42.726;23.268;2023-08-17T04:27:34;5.85;;;3.65;;
22646;SDS011;11490;42.726;23.268;2023-08-17T04:30:00;6.78;;;4.50;;
22646;SDS011;11490;42.726;23.268;2023-08-17T04:32:26;7.13;;;5.38;;
22646;SDS011;11490;42.726;23.268;2023-08-17T04:34:51;5.80;;;4.05;;
22646;SDS011;11490;42.726;23.268;2023-08-17T04:37:17;8.88;;;5.20;;
22646;SDS011;11490;42.726;23.268;2023-08-17T04:39:42;9.65;;;4.80;;
22646;SDS011;11490;42.726;23.268;2023-08-17T04:42:08;7.82;;;5.00;;
22646;SDS011;11490;42.726;23.268;2023-08-17T04:44:34;6.43;;;4.25;;
22646;SDS011;11490;42.726;23.268;2023-08-17T04:47:00;11.18;;;5.20;;
22646;SDS011;11490;42.726;23.268;2023-08-17T04:49:26;14.27;;;5.45;;
22646;SDS011;11490;42.726;23.268;2023-08-17T04:51:51;7.50;;;4.50;;
22646;SDS011;11490;42.726;23.268;2023-08-17T04:54:17;10.15;;;4.18;;
22646;SDS011;11490;42.726;23.268;2023-08-17T04:56:43;7.80;;;3.95;;
22646;SDS011;11490;42.726;23.268;2023-08-17T04:59:08;6.22;;;4.65;;
22646;SDS011;11490;42.726;23.268;2023-08-17T05:01:34;8.85;;;6.03;;
22646;SDS011;11490;42.726;23.268;2023-08-17T05:04:00;6.13;;;3.75;;
22646;SDS011;11490;42.726;23.268;2023-08-17T05:06:27;5.38;;;3.50;;
22646;SDS011;11490;42.726;23.268;2023-08-17T05:08:53;20.05;;;3.75;;
22646;SDS011;11490;42.726;23.268;2023-08-17T05:11:19;11.77;;;4.20;;
22646;SDS011;11490;42.726;23.268;2023-08-17T05:13:44;6.95;;;3.85;;
22646;SDS011;11490;42.726;23.268;2023-08-17T05:16:10;6.22;;;3.50;;
22646;SDS011;11490;42.726;23.268;2023-08-17T05:18:35;6.82;;;4.80;;
22646;SDS011;11490;42.726;23.268;2023-08-17T05:21:00;7.05;;;3.78;;
22646;SDS011;11490;42.726;23.268;2023-08-17T05:23:26;8.93;;;4.07;;
22646;SDS011;11490;42.726;23.268;2023-08-17T05:25:51;7.80;;;3.60;;
22646;SDS011;11490;42.726;23.268;2023-08-17T05:28:17;8.05;;;4.63;;
22646;SDS011;11490;42.726;23.268;2023-08-17T05:30:42;7.47;;;5.18;;
22646;SDS011;11490;42.726;23.268;2023-08-17T05:33:08;8.13;;;5.47;;
22646;SDS011;11490;42.726;23.268;2023-08-17T05:35:34;13.45;;;6.57;;
22646;SDS011;11490;42.726;23.268;2023-08-17T05:37:59;15.05;;;7.13;;
22646;SDS011;11490;42.726;23.268;2023-08-17T05:40:25;12.45;;;7.03;;
22646;SDS011;11490;42.726;23.268;2023-08-17T05:42:50;9.98;;;4.78;;
22646;SDS011;11490;42.726;23.268;2023-08-17T05:45:16;16.30;;;4.93;;
22646;SDS011;11490;42.726;23.268;2023-08-17T05:47:42;7.18;;;4.05;;
22646;SDS011;11490;42.726;23.268;2023-08-17T05:50:07;6.07;;;4.35;;
22646;SDS011;11490;42.726;23.268;2023-08-17T05:52:33;7.80;;;5.00;;
22646;SDS011;11490;42.726;23.268;2023-08-17T05:54:58;6.38;;;4.40;;
22646;SDS011;11490;42.726;23.268;2023-08-17T05:57:24;16.77;;;5.35;;
22646;SDS011;11490;42.726;23.268;2023-08-17T05:59:49;8.45;;;5.60;;
22646;SDS011;11490;42.726;23.268;2023-08-17T06:02:14;10.05;;;6.28;;
22646;SDS011;11490;42.726;23.268;2023-08-17T06:04:40;9.25;;;5.63;;
22646;SDS011;11490;42.726;23.268;2023-08-17T06:07:06;9.18;;;5.72;;
22646;SDS011;11490;42.726;23.268;2023-08-17T06:09:31;8.20;;;5.45;;
22646;SDS011;11490;42.726;23.268;2023-08-17T06:11:57;10.68;;;6.30;;
22646;SDS011;11490;42.726;23.268;2023-08-17T06:14:22;7.07;;;4.80;;
22646;SDS011;11490;42.726;23.268;2023-08-17T06:16:48;8.30;;;6.00;;
22646;SDS011;11490;42.726;23.268;2023-08-17T06:19:13;7.43;;;5.60;;
22646;SDS011;11490;42.726;23.268;2023-08-17T06:21:38;8.43;;;5.75;;
22646;SDS011;11490;42.726;23.268;2023-08-17T06:24:04;7.47;;;5.75;;
22646;SDS011;11490;42.726;23.268;2023-08-17T06:26:30;8.65;;;5.53;;
22646;SDS011;11490;42.726;23.268;2023-08-17T06:28:55;10.05;;;5.40;;
22646;SDS011;11490;42.726;23.268;2023-08-17T06:31:21;7.93;;;5.68;;
22646;SDS011;11490;42.726;23.268;2023-08-17T06:33:48;10.77;;;5.70;;
22646;SDS011;11490;42.726;23.268;2023-08-17T06:36:13;10.00;;;5.18;;
22646;SDS011;11490;42.726;23.268;2023-08-17T06:38:41;6.40;;;4.85;;
22646;SDS011;11490;42.726;23.268;2023-08-17T06:41:07;10.35;;;5.65;;
22646;SDS011;11490;42.726;23.268;2023-08-17T06:43:33;9.18;;;5.20;;
22646;SDS011;11490;42.726;23.268;2023-08-17T06:45:58;6.70;;;5.43;;
22646;SDS011;11490;42.726;23.268;2023-08-17T06:48:25;11.85;;;6.55;;
22646;SDS011;11490;42.726;23.268;2023-08-17T06:50:51;8.15;;;4.85;;
22646;SDS011;11490;42.726;23.268;2023-08-17T06:53:16;12.20;;;5.03;;
22646;SDS011;11490;42.726;23.268;2023-08-17T06:55:41;10.25;;;5.30;;
22646;SDS011;11490;42.726;23.268;2023-08-17T06:58:07;7.80;;;5.78;;
22646;SDS011;11490;42.726;23.268;2023-08-17T07:00:32;10.25;;;4.82;;
22646;SDS011;11490;42.726;23.268;2023-08-17T07:03:00;9.43;;;4.38;;
22646;SDS011;11490;42.726;23.268;2023-08-17T07:05:25;7.60;;;4.75;;
22646;SDS011;11490;42.726;23.268;2023-08-17T07:07:51;10.18;;;4.93;;
22646;SDS011;11490;42.726;23.268;2023-08-17T07:10:17;5.22;;;3.83;;
22646;SDS011;11490;42.726;23.268;2023-08-17T07:12:43;11.10;;;4.13;;
22646;SDS011;11490;42.726;23.268;2023-08-17T07:15:09;6.43;;;4.55;;
22646;SDS011;11490;42.726;23.268;2023-08-17T07:17:35;12.02;;;4.32;;
22646;SDS011;11490;42.726;23.268;2023-08-17T07:20:01;7.80;;;3.30;;
22646;SDS011;11490;42.726;23.268;2023-08-17T07:22:28;12.18;;;3.65;;
22646;SDS011;11490;42.726;23.268;2023-08-17T07:24:53;5.63;;;3.80;;
22646;SDS011;11490;42.726;23.268;2023-08-17T07:27:19;6.05;;;3.75;;
22646;SDS011;11490;42.726;23.268;2023-08-17T07:29:44;7.32;;;3.25;;
22646;SDS011;11490;42.726;23.268;2023-08-17T07:32:09;4.75;;;3.25;;
22646;SDS011;11490;42.726;23.268;2023-08-17T07:34:35;8.93;;;3.88;;
22646;SDS011;11490;42.726;23.268;2023-08-17T07:37:01;8.82;;;4.10;;
22646;SDS011;11490;42.726;23.268;2023-08-17T07:39:28;4.93;;;3.13;;
22646;SDS011;11490;42.726;23.268;2023-08-17T07:41:54;5.25;;;3.65;;
22646;SDS011;11490;42.726;23.268;2023-08-17T07:44:19;6.82;;;4.50;;
22646;SDS011;11490;42.726;23.268;2023-08-17T07:46:45;4.30;;;3.70;;
22646;SDS011;11490;42.726;23.268;2023-08-17T07:49:10;10.68;;;3.63;;
22646;SDS011;11490;42.726;23.268;2023-08-17T07:51:36;5.30;;;3.90;;
22646;SDS011;11490;42.726;23.268;2023-08-17T07:54:01;5.70;;;3.33;;
22646;SDS011;11490;42.726;23.268;2023-08-17T07:56:26;6.90;;;3.53;;
22646;SDS011;11490;42.726;23.268;2023-08-17T07:58:55;5.47;;;3.85;;
22646;SDS011;11490;42.726;23.268;2023-08-17T08:01:20;6.18;;;3.58;;
22646;SDS011;11490;42.726;23.268;2023-08-17T08:03:46;5.10;;;3.42;;
22646;SDS011;11490;42.726;23.268;2023-08-17T08:06:11;7.47;;;3.30;;
22646;SDS011;11490;42.726;23.268;2023-08-17T08:08:37;4.97;;;3.03;;
22646;SDS011;11490;42.726;23.268;2023-08-17T08:11:03;5.63;;;3.00;;
22646;SDS011;11490;42.726;23.268;2023-08-17T08:13:29;4.85;;;3.28;;
22646;SDS011;11490;42.726;23.268;2023-08-17T08:15:55;6.72;;;3.15;;
22646;SDS011;11490;42.726;23.268;2023-08-17T08:18:20;3.78;;;2.88;;
22646;SDS011;11490;42.726;23.268;2023-08-17T08:20:46;4.55;;;2.60;;
22646;SDS011;11490;42.726;23.268;2023-08-17T08:23:11;4.03;;;2.40;;
22646;SDS011;11490;42.726;23.268;2023-08-17T08:25:37;4.32;;;2.10;;
22646;SDS011;11490;42.726;23.268;2023-08-17T08:28:02;4.80;;;2.40;;
22646;SDS011;11490;42.726;23.268;2023-08-17T08:30:28;3.65;;;2.58;;
22646;SDS011;11490;42.726;23.268;2023-08-17T08:32:53;5.72;;;2.58;;
22646;SDS011;11490;42.726;23.268;2023-08-17T08:35:22;4.57;;;2.30;;
22646;SDS011;11490;42.726;23.268;2023-08-17T08:37:49;10.07;;;2.58;;
22646;SDS011;11490;42.726;23.268;2023-08-17T08:40:15;6.28;;;2.15;;
22646;SDS011;11490;42.726;23.268;2023-08-17T08:42:42;2.90;;;2.00;;
22646;SDS011;11490;42.726;23.268;2023-08-17T08:45:08;3.67;;;2.30;;
22646;SDS011;11490;42.726;23.268;2023-08-17T08:47:35;5.30;;;2.17;;
22646;SDS011;11490;42.726;23.268;2023-08-17T08:50:02;2.53;;;1.80;;
22646;SDS011;11490;42.726;23.268;2023-08-17T08:52:35;3.72;;;2.08;;
22646;SDS011;11490;42.726;23.268;2023-08-17T08:57:42;6.22;;;2.70;;
22646;SDS011;11490;42.726;23.268;2023-08-17T09:00:08;4.38;;;2.20;;
22646;SDS011;11490;42.726;23.268;2023-08-17T09:02:34;4.38;;;1.90;;
22646;SDS011;11490;42.726;23.268;2023-08-17T09:05:00;5.22;;;2.20;;
22646;SDS011;11490;42.726;23.268;2023-08-17T09:07:27;3.25;;;1.98;;
22646;SDS011;11490;42.726;23.268;2023-08-17T09:09:55;3.25;;;2.15;;
22646;SDS011;11490;42.726;23.268;2023-08-17T09:12:21;3.10;;;2.05;;
22646;SDS011;11490;42.726;23.268;2023-08-17T09:14:47;3.25;;;2.10;;
22646;SDS011;11490;42.726;23.268;2023-08-17T09:17:12;4.43;;;2.45;;
22646;SDS011;11490;42.726;23.268;2023-08-17T09:19:37;5.97;;;2.47;;
22646;SDS011;11490;42.726;23.268;2023-08-17T09:22:03;6.00;;;2.08;;
22646;SDS011;11490;42.726;23.268;2023-08-17T09:24:35;3.53;;;1.70;;
22646;SDS011;11490;42.726;23.268;2023-08-17T09:27:01;3.53;;;1.98;;
22646;SDS011;11490;42.726;23.268;2023-08-17T09:29:28;4.85;;;2.13;;
22646;SDS011;11490;42.726;23.268;2023-08-17T09:31:58;11.30;;;2.05;;
22646;SDS011;11490;42.726;23.268;2023-08-17T09:34:30;7.32;;;2.20;;
22646;SDS011;11490;42.726;23.268;2023-08-17T09:36:56;4.00;;;2.55;;
22646;SDS011;11490;42.726;23.268;2023-08-17T09:39:21;2.40;;;1.92;;
22646;SDS011;11490;42.726;23.268;2023-08-17T09:41:48;2.85;;;2.00;;
22646;SDS011;11490;42.726;23.268;2023-08-17T09:44:14;2.55;;;1.88;;
22646;SDS011;11490;42.726;23.268;2023-08-17T09:46:42;5.45;;;1.90;;
22646;SDS011;11490;42.726;23.268;2023-08-17T09:49:09;2.88;;;1.45;;
22646;SDS011;11490;42.726;23.268;2023-08-17T09:51:34;2.55;;;1.83;;
22646;SDS011;11490;42.726;23.268;2023-08-17T09:54:00;2.58;;;1.85;;
22646;SDS011;11490;42.726;23.268;2023-08-17T09:56:25;3.78;;;2.17;;
22646;SDS011;11490;42.726;23.268;2023-08-17T09:58:51;2.80;;;1.90;;
22646;SDS011;11490;42.726;23.268;2023-08-17T10:01:18;4.05;;;2.58;;
22646;SDS011;11490;42.726;23.268;2023-08-17T10:03:47;5.00;;;2.05;;
22646;SDS011;11490;42.726;23.268;2023-08-17T10:06:17;2.60;;;1.85;;
22646;SDS011;11490;42.726;23.268;2023-08-17T10:08:47;2.67;;;1.85;;
22646;SDS011;11490;42.726;23.268;2023-08-17T10:11:18;4.55;;;1.80;;
22646;SDS011;11490;42.726;23.268;2023-08-17T10:13:50;2.13;;;1.50;;
22646;SDS011;11490;42.726;23.268;2023-08-17T10:16:21;4.05;;;1.80;;
22646;SDS011;11490;42.726;23.268;2023-08-17T10:18:54;4.45;;;1.77;;
22646;SDS011;11490;42.726;23.268;2023-08-17T10:21:31;4.60;;;1.95;;
22646;SDS011;11490;42.726;23.268;2023-08-17T10:24:00;1.90;;;1.40;;
22646;SDS011;11490;42.726;23.268;2023-08-17T10:26:31;3.75;;;1.90;;
22646;SDS011;11490;42.726;23.268;2023-08-17T10:28:58;2.97;;;1.50;;
22646;SDS011;11490;42.726;23.268;2023-08-17T10:31:26;2.55;;;1.70;;
22646;SDS011;11490;42.726;23.268;2023-08-17T10:33:53;4.93;;;2.13;;
22646;SDS011;11490;42.726;23.268;2023-08-17T10:36:18;4.07;;;2.10;;
22646;SDS011;11490;42.726;23.268;2023-08-17T10:38:45;2.83;;;1.65;;
22646;SDS011;11490;42.726;23.268;2023-08-17T10:41:11;2.03;;;1.38;;
22646;SDS011;11490;42.726;23.268;2023-08-17T10:43:56;2.78;;;1.95;;
22646;SDS011;11490;42.726;23.268;2023-08-17T10:46:32;2.08;;;1.55;;
22646;SDS011;11490;42.726;23.268;2023-08-17T10:49:06;5.63;;;1.95;;
22646;SDS011;11490;42.726;23.268;2023-08-17T10:52:07;3.92;;;2.17;;
22646;SDS011;11490;42.726;23.268;2023-08-17T10:54:39;5.88;;;1.45;;
22646;SDS011;11490;42.726;23.268;2023-08-17T10:57:50;4.05;;;2.50;;
22646;SDS011;11490;42.726;23.268;2023-08-17T11:02:57;2.88;;;2.10;;
22646;SDS011;11490;42.726;23.268;2023-08-17T11:05:40;3.83;;;1.65;;
22646;SDS011;11490;42.726;23.268;2023-08-17T11:08:05;3.17;;;2.22;;
22646;SDS011;11490;42.726;23.268;2023-08-17T11:10:35;2.92;;;2.30;;
22646;SDS011;11490;42.726;23.268;2023-08-17T11:13:01;5.43;;;2.58;;
22646;SDS011;11490;42.726;23.268;2023-08-17T11:15:34;4.10;;;2.75;;
22646;SDS011;11490;42.726;23.268;2023-08-17T11:18:03;4.60;;;2.80;;
22646;SDS011;11490;42.726;23.268;2023-08-17T11:20:29;5.55;;;3.00;;
22646;SDS011;11490;42.726;23.268;2023-08-17T11:22:55;6.85;;;2.95;;
22646;SDS011;11490;42.726;23.268;2023-08-17T11:25:23;3.92;;;2.50;;
22646;SDS011;11490;42.726;23.268;2023-08-17T11:27:48;3.53;;;2.25;;
22646;SDS011;11490;42.726;23.268;2023-08-17T11:30:13;7.20;;;3.03;;
22646;SDS011;11490;42.726;23.268;2023-08-17T11:32:39;3.05;;;2.42;;
22646;SDS011;11490;42.726;23.268;2023-08-17T11:35:05;4.95;;;3.05;;
22646;SDS011;11490;42.726;23.268;2023-08-17T11:37:30;5.20;;;2.75;;
22646;SDS011;11490;42.726;23.268;2023-08-17T11:39:55;5.18;;;2.70;;
22646;SDS011;11490;42.726;23.268;2023-08-17T11:42:21;4.32;;;2.60;;
22646;SDS011;11490;42.726;23.268;2023-08-17T11:44:47;5.85;;;2.53;;
22646;SDS011;11490;42.726;23.268;2023-08-17T11:47:13;7.63;;;2.97;;
22646;SDS011;11490;42.726;23.268;2023-08-17T11:49:39;4.07;;;3.17;;
22646;SDS011;11490;42.726;23.268;2023-08-17T11:52:04;7.72;;;2.97;;
22646;SDS011;11490;42.726;23.268;2023-08-17T11:54:32;4.22;;;3.00;;
22646;SDS011;11490;42.726;23.268;2023-08-17T11:56:58;3.97;;;2.97;;
22646;SDS011;11490;42.726;23.268;2023-08-17T11:59:23;4.43;;;3.03;;
22646;SDS011;11490;42.726;23.268;2023-08-17T12:01:49;5.82;;;3.05;;
22646;SDS011;11490;42.726;23.268;2023-08-17T12:04:15;3.75;;;2.45;;
22646;SDS011;11490;42.726;23.268;2023-08-17T12:06:44;5.22;;;2.50;;
22646;SDS011;11490;42.726;23.268;2023-08-17T12:09:12;4.40;;;2.75;;
22646;SDS011;11490;42.726;23.268;2023-08-17T12:11:40;3.92;;;2.83;;
22646;SDS011;11490;42.726;23.268;2023-08-17T12:14:09;3.03;;;2.33;;
22646;SDS011;11490;42.726;23.268;2023-08-17T12:16:45;7.05;;;3.45;;
22646;SDS011;11490;42.726;23.268;2023-08-17T12:19:12;4.40;;;2.85;;
22646;SDS011;11490;42.726;23.268;2023-08-17T12:21:38;7.50;;;2.67;;
22646;SDS011;11490;42.726;23.268;2023-08-17T12:24:05;4.10;;;2.85;;
22646;SDS011;11490;42.726;23.268;2023-08-17T12:26:31;3.67;;;2.67;;
22646;SDS011;11490;42.726;23.268;2023-08-17T12:28:59;4.30;;;3.00;;
22646;SDS011;11490;42.726;23.268;2023-08-17T12:31:24;4.90;;;2.80;;
22646;SDS011;11490;42.726;23.268;2023-08-17T12:33:50;5.43;;;3.00;;
22646;SDS011;11490;42.726;23.268;2023-08-17T12:36:15;6.20;;;3.22;;
22646;SDS011;11490;42.726;23.268;2023-08-17T12:38:42;6.47;;;2.92;;
22646;SDS011;11490;42.726;23.268;2023-08-17T12:41:10;5.20;;;2.92;;
22646;SDS011;11490;42.726;23.268;2023-08-17T12:43:36;3.40;;;2.70;;
22646;SDS011;11490;42.726;23.268;2023-08-17T12:46:02;5.82;;;3.40;;
22646;SDS011;11490;42.726;23.268;2023-08-17T12:48:28;4.13;;;2.67;;
22646;SDS011;11490;42.726;23.268;2023-08-17T12:50:53;4.25;;;2.70;;
22646;SDS011;11490;42.726;23.268;2023-08-17T12:53:18;4.38;;;3.03;;
22646;SDS011;11490;42.726;23.268;2023-08-17T12:55:44;5.13;;;3.10;;
22646;SDS011;11490;42.726;23.268;2023-08-17T12:58:09;4.13;;;2.90;;
22646;SDS011;11490;42.726;23.268;2023-08-17T13:00:35;6.60;;;2.85;;
22646;SDS011;11490;42.726;23.268;2023-08-17T13:03:00;4.63;;;2.88;;
22646;SDS011;11490;42.726;23.268;2023-08-17T13:05:26;3.92;;;2.40;;
22646;SDS011;11490;42.726;23.268;2023-08-17T13:07:51;3.35;;;2.45;;
22646;SDS011;11490;42.726;23.268;2023-08-17T13:10:17;3.22;;;2.30;;
22646;SDS011;11490;42.726;23.268;2023-08-17T13:12:42;7.05;;;2.97;;
22646;SDS011;11490;42.726;23.268;2023-08-17T13:15:10;3.47;;;2.60;;
22646;SDS011;11490;42.726;23.268;2023-08-17T13:17:43;4.20;;;2.90;;
22646;SDS011;11490;42.726;23.268;2023-08-17T13:20:13;3.67;;;2.50;;
22646;SDS011;11490;42.726;23.268;2023-08-17T13:22:39;3.88;;;2.63;;
22646;SDS011;11490;42.726;23.268;2023-08-17T13:25:04;3.53;;;2.53;;
22646;SDS011;11490;42.726;23.268;2023-08-17T13:27:33;3.22;;;2.28;;
22646;SDS011;11490;42.726;23.268;2023-08-17T13:29:58;3.88;;;2.58;;
22646;SDS011;11490;42.726;23.268;2023-08-17T13:32:24;5.35;;;2.58;;
22646;SDS011;11490;42.726;23.268;2023-08-17T13:34:50;3.78;;;2.55;;
22646;SDS011;11490;42.726;23.268;2023-08-17T13:37:16;3.30;;;2.50;;
22646;SDS011;11490;42.726;23.268;2023-08-17T13:39:45;5.70;;;2.65;;
22646;SDS011;11490;42.726;23.268;2023-08-17T13:42:11;3.20;;;2.05;;
22646;SDS011;11490;42.726;23.268;2023-08-17T13:44:37;3.20;;;2.42;;
22646;SDS011;11490;42.726;23.268;2023-08-17T13:47:03;4.10;;;2.30;;
22646;SDS011;11490;42.726;23.268;2023-08-17T13:49:31;5.30;;;2.47;;
22646;SDS011;11490;42.726;23.268;2023-08-17T13:54:45;3.25;;;2.25;;
22646;SDS011;11490;42.726;23.268;2023-08-17T13:57:15;4.28;;;2.40;;
22646;SDS011;11490;42.726;23.268;2023-08-17T13:59:40;4.00;;;2.63;;
22646;SDS011;11490;42.726;23.268;2023-08-17T14:02:06;4.47;;;2.47;;
22646;SDS011;11490;42.726;23.268;2023-08-17T14:04:32;3.95;;;2.67;;
22646;SDS011;11490;42.726;23.268;2023-08-17T14:06:57;4.63;;;2.17;;
22646;SDS011;11490;42.726;23.268;2023-08-17T14:09:25;3.20;;;2.50;;
22646;SDS011;11490;42.726;23.268;2023-08-17T14:11:50;5.55;;;2.40;;
22646;SDS011;11490;42.726;23.268;2023-08-17T14:14:16;6.60;;;2.20;;
22646;SDS011;11490;42.726;23.268;2023-08-17T14:16:44;4.97;;;2.58;;
22646;SDS011;11490;42.726;23.268;2023-08-17T14:19:10;7.10;;;2.80;;
22646;SDS011;11490;42.726;23.268;2023-08-17T14:21:35;4.30;;;2.72;;
22646;SDS011;11490;42.726;23.268;2023-08-17T14:24:00;3.35;;;2.35;;
22646;SDS011;11490;42.726;23.268;2023-08-17T14:26:26;4.32;;;2.58;;
22646;SDS011;11490;42.726;23.268;2023-08-17T14:28:51;3.55;;;2.40;;
22646;SDS011;11490;42.726;23.268;2023-08-17T14:31:16;3.85;;;2.47;;
22646;SDS011;11490;42.726;23.268;2023-08-17T14:33:43;5.78;;;2.55;;
22646;SDS011;11490;42.726;23.268;2023-08-17T14:36:12;7.50;;;3.22;;
22646;SDS011;11490;42.726;23.268;2023-08-17T14:38:38;10.95;;;2.67;;
22646;SDS011;11490;42.726;23.268;2023-08-17T14:41:03;4.03;;;2.45;;